sensor_id;sensor_type;location;lat;lon;timestamp;pressure;altitude;pressure_sealevel;temperature;humidity
58209;BME280;44006;52.028;4.696;2022-07-29T00:00:12;101781.44;;;16.85;76.47
58209;BME280;44006;52.028;4.696;2022-07-29T00:02:38;101773.75;;;16.80;77.02
58209;BME280;44006;52.028;4.696;2022-07-29T00:05:04;101772.72;;;16.82;77.13
58209;BME280;44006;52.028;4.696;2022-07-29T00:07:29;101773.31;;;16.77;78.37
58209;BME280;44006;52.028;4.696;2022-07-29T00:09:56;101780.06;;;16.74;77.82
58209;BME280;44006;52.028;4.696;2022-07-29T00:12:23;101772.88;;;16.73;77.61
58209;BME280;44006;52.028;4.696;2022-07-29T00:14:49;101769.72;;;16.76;77.42
58209;BME280;44006;52.028;4.696;2022-07-29T00:17:14;101770.13;;;16.73;78.55
58209;BME280;44006;52.028;4.696;2022-07-29T00:19:40;101766.09;;;16.69;77.65
58209;BME280;44006;52.028;4.696;2022-07-29T00:22:05;101760.59;;;16.69;77.69
58209;BME280;44006;52.028;4.696;2022-07-29T00:24:30;101760.81;;;16.68;77.64
58209;BME280;44006;52.028;4.696;2022-07-29T00:26:56;101758.91;;;16.68;78.13
58209;BME280;44006;52.028;4.696;2022-07-29T00:29:21;101759.78;;;16.69;77.38
58209;BME280;44006;52.028;4.696;2022-07-29T00:31:47;101759.28;;;16.65;78.94
58209;BME280;44006;52.028;4.696;2022-07-29T00:34:12;101753.16;;;16.63;78.23
58209;BME280;44006;52.028;4.696;2022-07-29T00:36:56;101754.63;;;16.59;78.40
58209;BME280;44006;52.028;4.696;2022-07-29T00:39:22;101746.16;;;16.54;78.86
58209;BME280;44006;52.028;4.696;2022-07-29T00:41:48;101747.19;;;16.53;78.83
58209;BME280;44006;52.028;4.696;2022-07-29T00:44:13;101746.78;;;16.56;79.56
58209;BME280;44006;52.028;4.696;2022-07-29T00:46:39;101742.56;;;16.53;79.40
58209;BME280;44006;52.028;4.696;2022-07-29T00:49:04;101743.59;;;16.52;80.01
58209;BME280;44006;52.028;4.696;2022-07-29T00:51:30;101736.44;;;16.51;79.09
58209;BME280;44006;52.028;4.696;2022-07-29T00:53:55;101737.47;;;16.50;78.93
58209;BME280;44006;52.028;4.696;2022-07-29T00:56:22;101740.78;;;16.46;79.36
58209;BME280;44006;52.028;4.696;2022-07-29T00:58:47;101738.06;;;16.46;80.78
58209;BME280;44006;52.028;4.696;2022-07-29T01:01:15;101735.97;;;16.48;79.71
58209;BME280;44006;52.028;4.696;2022-07-29T01:03:40;101733.44;;;16.46;79.54
58209;BME280;44006;52.028;4.696;2022-07-29T01:06:06;101735.50;;;16.44;79.43
58209;BME280;44006;52.028;4.696;2022-07-29T01:08:32;101732.13;;;16.42;79.73
58209;BME280;44006;52.028;4.696;2022-07-29T01:10:58;101736.78;;;16.41;80.06
58209;BME280;44006;52.028;4.696;2022-07-29T01:13:25;101731.28;;;16.41;79.61
58209;BME280;44006;52.028;4.696;2022-07-29T01:15:54;101732.13;;;16.42;79.72
58209;BME280;44006;52.028;4.696;2022-07-29T01:18:30;101721.78;;;16.37;80.08
58209;BME280;44006;52.028;4.696;2022-07-29T01:21:27;101724.06;;;16.34;80.80
58209;BME280;44006;52.028;4.696;2022-07-29T01:29:45;101730.97;;;16.30;81.55
58209;BME280;44006;52.028;4.696;2022-07-29T01:32:22;101731.34;;;16.27;81.16
58209;BME280;44006;52.028;4.696;2022-07-29T01:37:51;101727.78;;;16.26;80.65
58209;BME280;44006;52.028;4.696;2022-07-29T01:40:23;101724.84;;;16.28;80.45
58209;BME280;44006;52.028;4.696;2022-07-29T01:42:51;101725.88;;;16.27;81.57
58209;BME280;44006;52.028;4.696;2022-07-29T01:45:41;101725.22;;;16.24;80.94
58209;BME280;44006;52.028;4.696;2022-07-29T01:48:29;101732.63;;;16.24;80.44
58209;BME280;44006;52.028;4.696;2022-07-29T01:51:12;101720.56;;;16.18;81.28
58209;BME280;44006;52.028;4.696;2022-07-29T01:53:46;101721.41;;;16.19;80.66
58209;BME280;44006;52.028;4.696;2022-07-29T01:56:14;101728.59;;;16.20;80.93
58209;BME280;44006;52.028;4.696;2022-07-29T01:58:43;101716.75;;;16.19;81.16
58209;BME280;44006;52.028;4.696;2022-07-29T02:01:12;101719.31;;;16.21;80.36
58209;BME280;44006;52.028;4.696;2022-07-29T02:03:39;101707.88;;;16.17;80.71
58209;BME280;44006;52.028;4.696;2022-07-29T02:06:07;101711.28;;;16.19;81.53
58209;BME280;44006;52.028;4.696;2022-07-29T02:08:34;101704.31;;;16.17;80.30
58209;BME280;44006;52.028;4.696;2022-07-29T02:11:02;101709.59;;;16.18;81.28
58209;BME280;44006;52.028;4.696;2022-07-29T02:13:28;101707.44;;;16.14;82.91
58209;BME280;44006;52.028;4.696;2022-07-29T02:15:57;101705.94;;;16.11;80.81
58209;BME280;44006;52.028;4.696;2022-07-29T02:18:25;101700.25;;;16.13;81.10
58209;BME280;44006;52.028;4.696;2022-07-29T02:20:54;101701.50;;;16.10;81.62
58209;BME280;44006;52.028;4.696;2022-07-29T02:23:22;101697.47;;;16.06;81.59
58209;BME280;44006;52.028;4.696;2022-07-29T02:25:51;101703.53;;;16.01;81.95
58209;BME280;44006;52.028;4.696;2022-07-29T02:28:19;101695.13;;;16.03;81.89
58209;BME280;44006;52.028;4.696;2022-07-29T02:30:46;101704.19;;;16.03;81.35
58209;BME280;44006;52.028;4.696;2022-07-29T02:33:14;101695.31;;;16.01;82.34
58209;BME280;44006;52.028;4.696;2022-07-29T02:35:41;101697.59;;;15.98;82.19
58209;BME280;44006;52.028;4.696;2022-07-29T02:38:10;101697.59;;;15.98;82.59
58209;BME280;44006;52.028;4.696;2022-07-29T02:40:56;101702.44;;;15.96;82.48
58209;BME280;44006;52.028;4.696;2022-07-29T02:43:22;101703.09;;;15.98;82.11
58209;BME280;44006;52.028;4.696;2022-07-29T02:45:51;101699.31;;;15.99;82.06
58209;BME280;44006;52.028;4.696;2022-07-29T02:48:20;101703.91;;;15.98;81.95
58209;BME280;44006;52.028;4.696;2022-07-29T02:50:57;101694.41;;;15.94;82.98
58209;BME280;44006;52.028;4.696;2022-07-29T02:53:26;101688.94;;;15.94;83.21
58209;BME280;44006;52.028;4.696;2022-07-29T02:55:56;101691.22;;;15.91;82.87
58209;BME280;44006;52.028;4.696;2022-07-29T02:58:38;101690.56;;;15.89;82.69
58209;BME280;44006;52.028;4.696;2022-07-29T03:01:32;101699.63;;;15.89;83.81
58209;BME280;44006;52.028;4.696;2022-07-29T03:04:01;101689.69;;;15.88;83.15
58209;BME280;44006;52.028;4.696;2022-07-29T03:06:28;101686.31;;;15.86;82.87
58209;BME280;44006;52.028;4.696;2022-07-29T03:08:55;101683.13;;;15.82;82.51
58209;BME280;44006;52.028;4.696;2022-07-29T03:11:21;101691.16;;;15.84;83.29
58209;BME280;44006;52.028;4.696;2022-07-29T03:13:47;101690.31;;;15.83;83.17
58209;BME280;44006;52.028;4.696;2022-07-29T03:16:12;101688.53;;;15.76;83.22
58209;BME280;44006;52.028;4.696;2022-07-29T03:18:38;101687.94;;;15.80;83.09
58209;BME280;44006;52.028;4.696;2022-07-29T03:21:04;101680.69;;;15.73;83.28
58209;BME280;44006;52.028;4.696;2022-07-29T03:23:30;101680.47;;;15.74;83.97
58209;BME280;44006;52.028;4.696;2022-07-29T03:25:55;101680.00;;;15.71;83.55
58209;BME280;44006;52.028;4.696;2022-07-29T03:28:21;101678.06;;;15.64;83.13
58209;BME280;44006;52.028;4.696;2022-07-29T03:30:48;101680.88;;;15.71;83.13
58209;BME280;44006;52.028;4.696;2022-07-29T03:33:14;101674.09;;;15.67;83.70
58209;BME280;44006;52.028;4.696;2022-07-29T03:35:39;101681.66;;;15.65;83.43
58209;BME280;44006;52.028;4.696;2022-07-29T03:38:05;101676.16;;;15.65;84.12
58209;BME280;44006;52.028;4.696;2022-07-29T03:40:44;101670.88;;;15.63;84.69
58209;BME280;44006;52.028;4.696;2022-07-29T03:43:13;101671.69;;;15.57;84.10
58209;BME280;44006;52.028;4.696;2022-07-29T03:45:44;101675.06;;;15.59;83.03
58209;BME280;44006;52.028;4.696;2022-07-29T03:48:13;101672.31;;;15.59;82.83
58209;BME280;44006;52.028;4.696;2022-07-29T03:50:39;101669.97;;;15.56;84.08
58209;BME280;44006;52.028;4.696;2022-07-29T03:53:05;101673.69;;;15.48;84.02
58209;BME280;44006;52.028;4.696;2022-07-29T03:55:36;101680.00;;;15.49;84.39
58209;BME280;44006;52.028;4.696;2022-07-29T03:58:03;101672.25;;;15.53;83.20
58209;BME280;44006;52.028;4.696;2022-07-29T04:00:29;101679.81;;;15.51;83.77
58209;BME280;44006;52.028;4.696;2022-07-29T04:02:55;101670.97;;;15.48;84.81
58209;BME280;44006;52.028;4.696;2022-07-29T04:05:22;101679.81;;;15.51;85.03
58209;BME280;44006;52.028;4.696;2022-07-29T04:07:48;101678.09;;;15.49;83.71
58209;BME280;44006;52.028;4.696;2022-07-29T04:10:14;101681.00;;;15.41;84.10
58209;BME280;44006;52.028;4.696;2022-07-29T04:12:41;101676.91;;;15.37;84.42
58209;BME280;44006;52.028;4.696;2022-07-29T04:15:06;101672.97;;;15.40;83.82
58209;BME280;44006;52.028;4.696;2022-07-29T04:17:32;101672.97;;;15.40;84.25
58209;BME280;44006;52.028;4.696;2022-07-29T04:19:58;101682.22;;;15.39;83.79
58209;BME280;44006;52.028;4.696;2022-07-29T04:22:23;101687.03;;;15.37;84.00
58209;BME280;44006;52.028;4.696;2022-07-29T04:24:48;101680.06;;;15.34;83.39
58209;BME280;44006;52.028;4.696;2022-07-29T04:27:14;101676.91;;;15.37;82.43
58209;BME280;44006;52.028;4.696;2022-07-29T04:29:40;101675.91;;;15.38;83.21
58209;BME280;44006;52.028;4.696;2022-07-29T04:32:06;101678.16;;;15.35;83.46
58209;BME280;44006;52.028;4.696;2022-07-29T04:34:31;101676.53;;;15.40;84.06
58209;BME280;44006;52.028;4.696;2022-07-29T04:36:56;101676.91;;;15.37;84.02
58209;BME280;44006;52.028;4.696;2022-07-29T04:39:22;101677.56;;;15.39;83.33
58209;BME280;44006;52.028;4.696;2022-07-29T04:41:48;101682.03;;;15.40;83.27
58209;BME280;44006;52.028;4.696;2022-07-29T04:44:14;101682.47;;;15.44;84.09
58209;BME280;44006;52.028;4.696;2022-07-29T04:46:39;101681.19;;;15.40;82.73
58209;BME280;44006;52.028;4.696;2022-07-29T04:49:04;101685.59;;;15.41;83.19
58209;BME280;44006;52.028;4.696;2022-07-29T04:51:30;101688.34;;;15.41;83.74
58209;BME280;44006;52.028;4.696;2022-07-29T04:53:55;101679.66;;;15.37;83.62
58209;BME280;44006;52.028;4.696;2022-07-29T04:56:21;101680.53;;;15.38;83.57
58209;BME280;44006;52.028;4.696;2022-07-29T04:58:46;101681.38;;;15.38;83.70
58209;BME280;44006;52.028;4.696;2022-07-29T05:01:12;101670.41;;;15.38;83.17
58209;BME280;44006;52.028;4.696;2022-07-29T05:03:37;101671.84;;;15.34;84.60
58209;BME280;44006;52.028;4.696;2022-07-29T05:06:03;101668.06;;;15.35;84.86
58209;BME280;44006;52.028;4.696;2022-07-29T05:08:28;101669.31;;;15.33;84.27
58209;BME280;44006;52.028;4.696;2022-07-29T05:10:54;101674.19;;;15.37;84.99
58209;BME280;44006;52.028;4.696;2022-07-29T05:13:19;101670.59;;;15.37;83.79
58209;BME280;44006;52.028;4.696;2022-07-29T05:15:44;101681.56;;;15.37;84.43
58209;BME280;44006;52.028;4.696;2022-07-29T05:18:10;101678.81;;;15.37;84.86
58209;BME280;44006;52.028;4.696;2022-07-29T05:20:35;101673.81;;;15.40;84.90
58209;BME280;44006;52.028;4.696;2022-07-29T05:23:01;101675.44;;;15.35;84.78
58209;BME280;44006;52.028;4.696;2022-07-29T05:25:27;101683.66;;;15.35;84.25
58209;BME280;44006;52.028;4.696;2022-07-29T05:27:53;101689.13;;;15.35;84.62
58209;BME280;44006;52.028;4.696;2022-07-29T05:30:19;101685.78;;;15.39;84.20
58209;BME280;44006;52.028;4.696;2022-07-29T05:32:45;101686.66;;;15.40;85.92
58209;BME280;44006;52.028;4.696;2022-07-29T05:35:10;101683.03;;;15.39;84.40
58209;BME280;44006;52.028;4.696;2022-07-29T05:37:36;101687.31;;;15.42;86.69
58209;BME280;44006;52.028;4.696;2022-07-29T05:40:02;101685.59;;;15.41;85.52
58209;BME280;44006;52.028;4.696;2022-07-29T05:42:30;101705.81;;;15.40;84.85
58209;BME280;44006;52.028;4.696;2022-07-29T05:44:55;101700.16;;;15.41;85.75
58209;BME280;44006;52.028;4.696;2022-07-29T05:47:22;101702.47;;;15.44;84.92
58209;BME280;44006;52.028;4.696;2022-07-29T05:49:47;101698.91;;;15.44;86.25
58209;BME280;44006;52.028;4.696;2022-07-29T05:52:12;101696.81;;;15.46;84.93
58209;BME280;44006;52.028;4.696;2022-07-29T05:54:41;101692.00;;;15.48;85.22
58209;BME280;44006;52.028;4.696;2022-07-29T05:57:06;101689.25;;;15.48;86.58
58209;BME280;44006;52.028;4.696;2022-07-29T05:59:36;101698.59;;;15.54;86.37
58209;BME280;44006;52.028;4.696;2022-07-29T06:02:01;101699.72;;;15.59;85.98
58209;BME280;44006;52.028;4.696;2022-07-29T06:04:27;101692.22;;;15.68;86.48
58209;BME280;44006;52.028;4.696;2022-07-29T06:06:52;101704.97;;;15.76;85.97
58209;BME280;44006;52.028;4.696;2022-07-29T06:09:18;101704.19;;;15.82;86.12
58209;BME280;44006;52.028;4.696;2022-07-29T06:11:43;101709.78;;;15.95;85.96
58209;BME280;44006;52.028;4.696;2022-07-29T06:14:08;101705.00;;;16.04;86.09
58209;BME280;44006;52.028;4.696;2022-07-29T06:16:33;101705.97;;;16.18;84.76
58209;BME280;44006;52.028;4.696;2022-07-29T06:18:59;101702.06;;;16.27;84.48
58209;BME280;44006;52.028;4.696;2022-07-29T06:21:24;101709.75;;;16.38;83.72
58209;BME280;44006;52.028;4.696;2022-07-29T06:23:49;101711.09;;;16.49;83.18
58209;BME280;44006;52.028;4.696;2022-07-29T06:26:15;101714.13;;;16.61;82.68
58209;BME280;44006;52.028;4.696;2022-07-29T06:28:41;101715.78;;;16.84;81.56
58209;BME280;44006;52.028;4.696;2022-07-29T06:31:06;101715.22;;;16.95;81.44
58209;BME280;44006;52.028;4.696;2022-07-29T06:33:33;101706.38;;;16.99;81.41
58209;BME280;44006;52.028;4.696;2022-07-29T06:35:58;101713.66;;;17.21;80.78
58209;BME280;44006;52.028;4.696;2022-07-29T06:38:25;101716.69;;;17.39;79.14
58209;BME280;44006;52.028;4.696;2022-07-29T06:40:50;101708.69;;;17.44;78.37
58209;BME280;44006;52.028;4.696;2022-07-29T06:43:30;101714.56;;;17.41;78.79
58209;BME280;44006;52.028;4.696;2022-07-29T06:46:09;101710.63;;;17.64;78.04
58209;BME280;44006;52.028;4.696;2022-07-29T06:48:35;101722.06;;;17.67;78.79
58209;BME280;44006;52.028;4.696;2022-07-29T06:51:02;101724.84;;;17.81;78.68
58209;BME280;44006;52.028;4.696;2022-07-29T06:53:28;101720.38;;;17.80;77.67
58209;BME280;44006;52.028;4.696;2022-07-29T06:55:54;101726.78;;;17.87;78.01
58209;BME280;44006;52.028;4.696;2022-07-29T06:58:19;101724.69;;;17.96;77.84
58209;BME280;44006;52.028;4.696;2022-07-29T07:00:47;101724.66;;;17.89;77.75
58209;BME280;44006;52.028;4.696;2022-07-29T07:03:13;101733.34;;;17.86;77.95
58209;BME280;44006;52.028;4.696;2022-07-29T07:05:38;101729.47;;;17.80;78.38
58209;BME280;44006;52.028;4.696;2022-07-29T07:08:04;101726.94;;;17.79;78.92
58209;BME280;44006;52.028;4.696;2022-07-29T07:10:30;101730.94;;;17.76;78.84
58209;BME280;44006;52.028;4.696;2022-07-29T07:12:55;101737.91;;;17.79;78.88
58209;BME280;44006;52.028;4.696;2022-07-29T07:15:21;101748.50;;;17.82;78.78
58209;BME280;44006;52.028;4.696;2022-07-29T07:17:48;101752.16;;;17.96;78.38
58209;BME280;44006;52.028;4.696;2022-07-29T07:20:14;101748.38;;;18.03;78.50
58209;BME280;44006;52.028;4.696;2022-07-29T07:22:39;101748.16;;;18.05;78.05
58209;BME280;44006;52.028;4.696;2022-07-29T07:25:05;101747.31;;;18.04;78.21
58209;BME280;44006;52.028;4.696;2022-07-29T07:27:31;101749.84;;;18.06;78.29
58209;BME280;44006;52.028;4.696;2022-07-29T07:29:56;101745.00;;;18.08;77.82
58209;BME280;44006;52.028;4.696;2022-07-29T07:32:23;101755.16;;;18.07;77.98
58209;BME280;44006;52.028;4.696;2022-07-29T07:34:48;101753.44;;;18.13;79.16
58209;BME280;44006;52.028;4.696;2022-07-29T07:37:13;101753.66;;;18.18;77.67
58209;BME280;44006;52.028;4.696;2022-07-29T07:39:40;101756.63;;;18.23;77.93
58209;BME280;44006;52.028;4.696;2022-07-29T07:42:05;101756.22;;;18.20;78.33
58209;BME280;44006;52.028;4.696;2022-07-29T07:44:30;101749.03;;;18.25;77.80
58209;BME280;44006;52.028;4.696;2022-07-29T07:46:56;101748.19;;;18.32;77.35
58209;BME280;44006;52.028;4.696;2022-07-29T07:49:21;101747.53;;;18.36;77.85
58209;BME280;44006;52.028;4.696;2022-07-29T07:51:46;101749.47;;;18.49;77.76
58209;BME280;44006;52.028;4.696;2022-07-29T07:54:12;101751.97;;;18.57;78.04
58209;BME280;44006;52.028;4.696;2022-07-29T07:56:37;101743.50;;;18.59;77.83
58209;BME280;44006;52.028;4.696;2022-07-29T07:59:02;101752.81;;;18.71;77.14
58209;BME280;44006;52.028;4.696;2022-07-29T08:01:28;101753.88;;;18.70;76.19
58209;BME280;44006;52.028;4.696;2022-07-29T08:03:53;101751.34;;;18.89;76.25
58209;BME280;44006;52.028;4.696;2022-07-29T08:06:19;101747.72;;;18.95;76.28
58209;BME280;44006;52.028;4.696;2022-07-29T08:08:45;101742.22;;;18.95;76.02
58209;BME280;44006;52.028;4.696;2022-07-29T08:11:11;101737.97;;;18.92;75.83
58209;BME280;44006;52.028;4.696;2022-07-29T08:13:39;101738.44;;;18.89;75.96
58209;BME280;44006;52.028;4.696;2022-07-29T08:16:05;101747.31;;;18.91;75.91
58209;BME280;44006;52.028;4.696;2022-07-29T08:18:39;101745.41;;;18.98;75.50
58209;BME280;44006;52.028;4.696;2022-07-29T08:21:07;101750.06;;;18.98;74.46
58209;BME280;44006;52.028;4.696;2022-07-29T08:23:33;101751.53;;;19.00;74.26
58209;BME280;44006;52.028;4.696;2022-07-29T08:26:10;101746.47;;;18.91;73.76
58209;BME280;44006;52.028;4.696;2022-07-29T08:28:39;101748.16;;;18.98;74.30
58209;BME280;44006;52.028;4.696;2022-07-29T08:31:06;101745.81;;;19.02;74.82
58209;BME280;44006;52.028;4.696;2022-07-29T08:33:32;101751.03;;;19.23;74.17
58209;BME280;44006;52.028;4.696;2022-07-29T08:35:57;101757.75;;;19.34;74.10
58209;BME280;44006;52.028;4.696;2022-07-29T08:38:23;101756.88;;;19.47;73.86
58209;BME280;44006;52.028;4.696;2022-07-29T08:40:48;101758.66;;;19.73;73.58
58209;BME280;44006;52.028;4.696;2022-07-29T08:43:14;101763.38;;;20.05;71.64
58209;BME280;44006;52.028;4.696;2022-07-29T08:45:48;101754.13;;;20.24;71.38
58209;BME280;44006;52.028;4.696;2022-07-29T08:48:16;101757.03;;;20.54;69.30
58209;BME280;44006;52.028;4.696;2022-07-29T08:50:44;101757.28;;;20.78;68.24
58209;BME280;44006;52.028;4.696;2022-07-29T08:53:12;101760.16;;;20.90;67.82
58209;BME280;44006;52.028;4.696;2022-07-29T08:55:47;101762.03;;;20.89;66.30
58209;BME280;44006;52.028;4.696;2022-07-29T08:58:13;101762.13;;;21.01;67.48
58209;BME280;44006;52.028;4.696;2022-07-29T09:01:00;101757.13;;;20.91;68.44
58209;BME280;44006;52.028;4.696;2022-07-29T09:03:30;101756.22;;;20.98;67.33
58209;BME280;44006;52.028;4.696;2022-07-29T09:08:22;101746.19;;;21.22;66.82
58209;BME280;44006;52.028;4.696;2022-07-29T09:10:48;101752.16;;;21.19;66.08
58209;BME280;44006;52.028;4.696;2022-07-29T09:13:14;101752.25;;;21.12;67.94
58209;BME280;44006;52.028;4.696;2022-07-29T09:15:39;101748.72;;;21.05;67.34
58209;BME280;44006;52.028;4.696;2022-07-29T09:18:05;101746.41;;;21.02;67.56
58209;BME280;44006;52.028;4.696;2022-07-29T09:20:31;101747.72;;;20.99;67.75
58209;BME280;44006;52.028;4.696;2022-07-29T09:23:15;101748.25;;;20.89;67.65
58209;BME280;44006;52.028;4.696;2022-07-29T09:25:41;101750.84;;;20.84;68.61
58209;BME280;44006;52.028;4.696;2022-07-29T09:28:07;101747.47;;;20.82;68.56
58209;BME280;44006;52.028;4.696;2022-07-29T09:30:33;101741.03;;;20.88;68.67
58209;BME280;44006;52.028;4.696;2022-07-29T09:33:00;101744.97;;;20.99;69.40
58209;BME280;44006;52.028;4.696;2022-07-29T09:35:27;101741.91;;;21.07;68.87
58209;BME280;44006;52.028;4.696;2022-07-29T09:37:53;101738.34;;;21.19;68.32
58209;BME280;44006;52.028;4.696;2022-07-29T09:40:23;101742.63;;;21.33;68.23
58209;BME280;44006;52.028;4.696;2022-07-29T09:42:49;101743.34;;;21.47;68.98
58209;BME280;44006;52.028;4.696;2022-07-29T09:45:32;101749.78;;;21.59;66.97
58209;BME280;44006;52.028;4.696;2022-07-29T09:47:59;101765.50;;;21.77;67.15
58209;BME280;44006;52.028;4.696;2022-07-29T09:50:36;101752.63;;;22.13;65.56
58209;BME280;44006;52.028;4.696;2022-07-29T09:53:01;101761.63;;;22.09;65.44
58209;BME280;44006;52.028;4.696;2022-07-29T09:55:27;101751.66;;;22.08;65.62
58209;BME280;44006;52.028;4.696;2022-07-29T09:57:52;101753.72;;;22.12;66.18
58209;BME280;44006;52.028;4.696;2022-07-29T10:00:20;101748.09;;;22.31;65.93
58209;BME280;44006;52.028;4.696;2022-07-29T10:02:48;101752.94;;;22.59;64.54
58209;BME280;44006;52.028;4.696;2022-07-29T10:05:17;101749.34;;;22.70;64.29
58209;BME280;44006;52.028;4.696;2022-07-29T10:07:52;101751.50;;;22.92;63.79
58209;BME280;44006;52.028;4.696;2022-07-29T10:10:23;101754.63;;;23.19;64.02
58209;BME280;44006;52.028;4.696;2022-07-29T10:12:49;101755.56;;;23.36;62.05
58209;BME280;44006;52.028;4.696;2022-07-29T10:15:15;101750.31;;;23.52;60.26
58209;BME280;44006;52.028;4.696;2022-07-29T10:17:41;101754.19;;;23.51;58.69
58209;BME280;44006;52.028;4.696;2022-07-29T10:20:08;101746.31;;;23.60;57.24
58209;BME280;44006;52.028;4.696;2022-07-29T10:22:33;101750.63;;;23.67;56.72
58209;BME280;44006;52.028;4.696;2022-07-29T10:24:59;101749.78;;;23.67;57.89
58209;BME280;44006;52.028;4.696;2022-07-29T10:27:24;101755.91;;;23.81;59.11
58209;BME280;44006;52.028;4.696;2022-07-29T10:29:50;101747.97;;;24.01;58.51
58209;BME280;44006;52.028;4.696;2022-07-29T10:35:53;101751.84;;;24.17;57.05
58209;BME280;44006;52.028;4.696;2022-07-29T10:41:39;101753.69;;;24.28;57.17
58209;BME280;44006;52.028;4.696;2022-07-29T10:44:23;101744.03;;;24.31;57.00
58209;BME280;44006;52.028;4.696;2022-07-29T10:46:50;101737.28;;;24.44;56.17
58209;BME280;44006;52.028;4.696;2022-07-29T11:00:28;101733.75;;;24.82;55.39
58209;BME280;44006;52.028;4.696;2022-07-29T11:05:03;101730.06;;;24.60;54.05
58209;BME280;44006;52.028;4.696;2022-07-29T11:07:29;101730.91;;;24.60;53.89
58209;BME280;44006;52.028;4.696;2022-07-29T11:15:12;101727.81;;;25.18;54.51
58209;BME280;44006;52.028;4.696;2022-07-29T11:26:17;101726.72;;;25.19;53.78
58209;BME280;44006;52.028;4.696;2022-07-29T11:31:44;101722.97;;;25.25;54.21
58209;BME280;44006;52.028;4.696;2022-07-29T11:39:35;101727.88;;;25.23;52.29
58209;BME280;44006;52.028;4.696;2022-07-29T11:45:00;101733.34;;;25.35;52.66
58209;BME280;44006;52.028;4.696;2022-07-29T11:47:27;101731.94;;;25.32;51.92
58209;BME280;44006;52.028;4.696;2022-07-29T11:49:55;101734.81;;;25.20;50.42
58209;BME280;44006;52.028;4.696;2022-07-29T11:52:21;101730.31;;;25.36;51.86
58209;BME280;44006;52.028;4.696;2022-07-29T11:54:47;101731.31;;;25.25;51.73
58209;BME280;44006;52.028;4.696;2022-07-29T11:57:16;101728.94;;;25.17;53.26
58209;BME280;44006;52.028;4.696;2022-07-29T11:59:43;101728.63;;;25.35;52.03
58209;BME280;44006;52.028;4.696;2022-07-29T12:02:09;101729.09;;;25.27;51.48
58209;BME280;44006;52.028;4.696;2022-07-29T12:04:55;101728.56;;;25.30;52.88
58209;BME280;44006;52.028;4.696;2022-07-29T12:07:31;101729.63;;;25.46;50.08
58209;BME280;44006;52.028;4.696;2022-07-29T12:09:57;101725.00;;;25.57;51.76
58209;BME280;44006;52.028;4.696;2022-07-29T12:12:23;101730.00;;;25.55;50.22
58209;BME280;44006;52.028;4.696;2022-07-29T12:14:49;101737.03;;;25.62;48.99
58209;BME280;44006;52.028;4.696;2022-07-29T12:17:29;101743.16;;;25.65;48.81
58209;BME280;44006;52.028;4.696;2022-07-29T12:19:55;101734.34;;;25.73;48.37
58209;BME280;44006;52.028;4.696;2022-07-29T12:22:42;101732.03;;;25.65;52.96
58209;BME280;44006;52.028;4.696;2022-07-29T12:25:12;101737.97;;;25.73;50.07
58209;BME280;44006;52.028;4.696;2022-07-29T12:27:39;101745.44;;;25.68;47.72
58209;BME280;44006;52.028;4.696;2022-07-29T12:30:07;101735.25;;;25.51;50.61
58209;BME280;44006;52.028;4.696;2022-07-29T12:32:43;101746.69;;;25.55;47.88
58209;BME280;44006;52.028;4.696;2022-07-29T12:35:16;101739.44;;;25.54;49.48
58209;BME280;44006;52.028;4.696;2022-07-29T12:37:45;101736.69;;;25.59;46.01
58209;BME280;44006;52.028;4.696;2022-07-29T12:40:17;101732.53;;;25.61;47.36
58209;BME280;44006;52.028;4.696;2022-07-29T12:43:04;101738.59;;;25.53;46.85
58209;BME280;44006;52.028;4.696;2022-07-29T12:45:31;101735.63;;;25.60;46.81
58209;BME280;44006;52.028;4.696;2022-07-29T12:47:56;101738.53;;;25.48;45.88
58209;BME280;44006;52.028;4.696;2022-07-29T12:50:22;101730.91;;;25.38;46.70
58209;BME280;44006;52.028;4.696;2022-07-29T12:52:47;101735.13;;;25.41;47.41
58209;BME280;44006;52.028;4.696;2022-07-29T12:55:13;101734.88;;;25.48;50.12
58209;BME280;44006;52.028;4.696;2022-07-29T12:57:47;101727.84;;;25.40;48.60
58209;BME280;44006;52.028;4.696;2022-07-29T13:00:13;101728.53;;;25.25;47.54
58209;BME280;44006;52.028;4.696;2022-07-29T13:02:40;101730.91;;;25.38;49.60
58209;BME280;44006;52.028;4.696;2022-07-29T13:05:07;101726.44;;;25.37;48.67
58209;BME280;44006;52.028;4.696;2022-07-29T13:07:37;101719.66;;;25.28;48.14
58209;BME280;44006;52.028;4.696;2022-07-29T13:10:11;101720.50;;;25.29;48.07
58209;BME280;44006;52.028;4.696;2022-07-29T13:12:37;101719.38;;;25.08;47.45
58209;BME280;44006;52.028;4.696;2022-07-29T13:15:13;101722.25;;;25.18;50.07
58209;BME280;44006;52.028;4.696;2022-07-29T13:17:43;101724.69;;;25.31;49.15
58209;BME280;44006;52.028;4.696;2022-07-29T13:20:11;101725.75;;;25.25;49.00
58209;BME280;44006;52.028;4.696;2022-07-29T13:22:42;101727.75;;;25.13;49.21
58209;BME280;44006;52.028;4.696;2022-07-29T13:25:08;101725.44;;;25.04;49.40
58209;BME280;44006;52.028;4.696;2022-07-29T13:27:37;101722.59;;;24.99;48.45
58209;BME280;44006;52.028;4.696;2022-07-29T13:30:07;101716.53;;;25.02;49.70
58209;BME280;44006;52.028;4.696;2022-07-29T13:32:33;101723.16;;;25.01;50.40
58209;BME280;44006;52.028;4.696;2022-07-29T13:35:07;101721.47;;;25.00;51.57
58209;BME280;44006;52.028;4.696;2022-07-29T13:37:34;101713.22;;;25.05;50.99
58209;BME280;44006;52.028;4.696;2022-07-29T13:40:00;101718.00;;;25.10;51.11
58209;BME280;44006;52.028;4.696;2022-07-29T13:42:28;101721.69;;;25.16;49.58
58209;BME280;44006;52.028;4.696;2022-07-29T13:44:53;101728.38;;;25.15;48.42
58209;BME280;44006;52.028;4.696;2022-07-29T13:47:19;101724.41;;;25.11;46.98
58209;BME280;44006;52.028;4.696;2022-07-29T13:49:45;101721.53;;;25.05;47.85